createdAt,value
2022-11-04T00:00:35.425Z,9.5
2022-11-04T00:01:38.919Z,9.5
2022-11-04T00:02:42.799Z,9.5
2022-11-04T00:03:46.584Z,9.5
2022-11-04T00:04:49.411Z,9.5
2022-11-04T00:05:52.442Z,9.5
2022-11-04T00:06:55.914Z,9.5
2022-11-04T00:07:59.073Z,9.5
2022-11-04T00:09:02.420Z,9.5
2022-11-04T00:10:05.425Z,9.5
2022-11-04T00:11:08.516Z,9.5
2022-11-04T00:12:10.515Z,9.5
2022-11-04T00:13:13.590Z,9.5
2022-11-04T00:14:16.693Z,9.6
2022-11-04T00:15:19.796Z,9.6
2022-11-04T00:16:23.146Z,9.6
2022-11-04T00:17:25.786Z,9.6
2022-11-04T00:18:28.869Z,9.5
2022-11-04T00:19:32.431Z,9.6
2022-11-04T00:20:35.524Z,9.5
2022-11-04T00:21:39.306Z,9.5
2022-11-04T00:22:42.218Z,9.5
2022-11-04T00:23:45.305Z,9.6
2022-11-04T00:24:47.837Z,9.5
2022-11-04T00:25:50.563Z,9.6
2022-11-04T00:26:54.140Z,9.6
2022-11-04T00:27:56.591Z,9.6
2022-11-04T00:28:59.673Z,9.5
2022-11-04T00:30:02.076Z,9.5
2022-11-04T00:31:05.168Z,9.5
2022-11-04T00:32:08.048Z,9.5
2022-11-04T00:33:10.852Z,9.6
2022-11-04T00:34:14.278Z,9.5
2022-11-04T00:35:17.462Z,9.5
2022-11-04T00:36:20.477Z,9.5
2022-11-04T00:37:23.980Z,9.5
2022-11-04T00:38:27.715Z,9.5
2022-11-04T00:39:30.468Z,9.5
2022-11-04T00:40:33.541Z,9.5
2022-11-04T00:41:36.617Z,9.5
2022-11-04T00:42:40.723Z,9.5
2022-11-04T00:43:43.721Z,9.5
2022-11-04T00:44:46.442Z,9.5
2022-11-04T00:45:49.429Z,9.5
2022-11-04T00:46:51.957Z,9.5
2022-11-04T00:47:54.959Z,9.5
2022-11-04T00:48:57.680Z,9.5
2022-11-04T00:50:00.478Z,9.6
2022-11-04T00:51:04.370Z,9.6
2022-11-04T00:52:07.208Z,9.6
2022-11-04T00:53:12.032Z,9.6
2022-11-04T00:54:15.528Z,9.6
2022-11-04T00:55:18.326Z,9.6
2022-11-04T00:56:20.489Z,9.6
2022-11-04T00:57:23.382Z,9.6
2022-11-04T00:58:27.483Z,9.6
2022-11-04T00:59:29.934Z,9.6
2022-11-04T01:00:32.471Z,9.6
2022-11-04T01:01:36.143Z,9.6
2022-11-04T01:02:39.851Z,9.6
2022-11-04T01:03:42.799Z,9.6
2022-11-04T01:04:45.988Z,9.6
2022-11-04T01:05:49.425Z,9.5
2022-11-04T01:06:51.616Z,9.6
2022-11-04T01:07:54.235Z,9.6
2022-11-04T01:08:57.279Z,9.5
2022-11-04T01:10:00.685Z,9.5
2022-11-04T01:11:04.039Z,9.6
2022-11-04T01:12:07.409Z,9.6
2022-11-04T01:13:12.016Z,9.5
2022-11-04T01:14:16.125Z,9.5
2022-11-04T01:15:19.206Z,9.6
2022-11-04T01:16:22.596Z,9.6
2022-11-04T01:17:26.040Z,9.5
2022-11-04T01:18:28.848Z,9.5
2022-11-04T01:19:31.435Z,9.5
2022-11-04T01:20:33.964Z,9.6
2022-11-04T01:21:36.573Z,9.5
2022-11-04T01:22:40.024Z,9.5
2022-11-04T01:23:43.109Z,9.5
2022-11-04T01:24:46.222Z,9.5
2022-11-04T01:25:49.050Z,9.5
2022-11-04T01:26:52.205Z,9.6
2022-11-04T01:27:55.587Z,9.5
2022-11-04T01:28:58.679Z,9.5
2022-11-04T01:30:01.589Z,9.5
2022-11-04T01:31:05.014Z,9.5
2022-11-04T01:32:07.886Z,9.5
2022-11-04T01:33:10.689Z,9.5
2022-11-04T01:34:13.499Z,9.5
2022-11-04T01:35:16.935Z,9.5
2022-11-04T01:36:19.726Z,9.5
2022-11-04T01:37:22.054Z,9.6
2022-11-04T01:38:24.875Z,9.5
2022-11-04T01:39:27.617Z,9.5
2022-11-04T01:40:31.003Z,9.5
2022-11-04T01:41:34.462Z,9.5
2022-11-04T01:42:37.844Z,9.5
2022-11-04T01:43:40.479Z,9.5
2022-11-04T01:44:43.255Z,9.5
2022-11-04T01:45:47.023Z,9.6
2022-11-04T01:46:50.094Z,9.5
2022-11-04T01:47:53.440Z,9.5
2022-11-04T01:48:56.316Z,9.5
2022-11-04T01:49:58.765Z,9.5
2022-11-04T01:51:01.455Z,9.5
2022-11-04T01:52:04.523Z,9.4
2022-11-04T01:53:09.879Z,9.4
2022-11-04T01:54:13.361Z,9.4
2022-11-04T01:55:16.844Z,9.4
2022-11-04T01:56:20.020Z,9.4
2022-11-04T01:57:23.758Z,9.4
2022-11-04T01:58:26.585Z,9.4
2022-11-04T01:59:29.376Z,9.4
2022-11-04T02:00:32.474Z,9.4
2022-11-04T02:01:37.468Z,9.4
2022-11-04T02:02:40.984Z,9.4
2022-11-04T02:03:43.962Z,9.4
2022-11-04T02:04:47.602Z,9.3
2022-11-04T02:05:50.595Z,9.3
2022-11-04T02:06:52.837Z,9.4
2022-11-04T02:07:55.558Z,9.4
2022-11-04T02:08:58.930Z,9.4
2022-11-04T02:10:01.318Z,9.3
2022-11-04T02:11:04.236Z,9.3
2022-11-04T02:12:07.285Z,9.3
2022-11-04T02:13:12.772Z,9.3
2022-11-04T02:14:15.899Z,9.3
2022-11-04T02:15:18.336Z,9.3
2022-11-04T02:16:21.232Z,9.3
2022-11-04T02:17:24.428Z,9.3
2022-11-04T02:18:27.236Z,9.3
2022-11-04T02:19:30.685Z,9.2
2022-11-04T02:20:34.066Z,9.2
2022-11-04T02:21:37.212Z,9.3
2022-11-04T02:22:40.274Z,9.3
2022-11-04T02:23:43.415Z,9.3
2022-11-04T02:24:46.475Z,9.3
2022-11-04T02:25:49.668Z,9.2
2022-11-04T02:26:53.019Z,9.2
2022-11-04T02:27:56.573Z,9.2
2022-11-04T02:28:59.508Z,9.2
2022-11-04T02:30:02.518Z,9.3
2022-11-04T02:31:04.486Z,9.3
2022-11-04T02:32:07.547Z,9.2
2022-11-04T02:33:12.661Z,9.3
2022-11-04T02:34:15.909Z,9.3
2022-11-04T02:35:19.242Z,9.3
2022-11-04T02:36:22.028Z,9.3
2022-11-04T02:37:24.546Z,9.3
2022-11-04T02:38:27.626Z,9.2
2022-11-04T02:39:30.628Z,9.3
2022-11-04T02:40:33.509Z,9.2
2022-11-04T02:41:36.608Z,9.3
2022-11-04T02:42:39.417Z,9.3
2022-11-04T02:43:42.644Z,9.3
2022-11-04T02:44:46.094Z,9.3
2022-11-04T02:45:48.811Z,9.2
2022-11-04T02:46:51.574Z,9.3
2022-11-04T02:47:54.323Z,9.3
2022-11-04T02:48:57.785Z,9.3
2022-11-04T02:50:00.576Z,9.3
2022-11-04T02:51:03.951Z,9.2
2022-11-04T02:52:07.340Z,9.3
2022-11-04T02:53:12.815Z,9.3
2022-11-04T02:54:15.610Z,9.2
2022-11-04T02:55:18.498Z,9.2
2022-11-04T02:56:22.022Z,9.2
2022-11-04T02:57:24.287Z,9.2
2022-11-04T02:58:27.370Z,9.2
2022-11-04T02:59:30.814Z,9.2
2022-11-04T03:00:33.939Z,9.2
2022-11-04T03:01:37.951Z,9.2
2022-11-04T03:02:41.670Z,9.2
2022-11-04T03:03:44.768Z,9.2
2022-11-04T03:04:48.223Z,9.2
2022-11-04T03:05:51.596Z,9.2
2022-11-04T03:06:54.665Z,9.2
2022-11-04T03:07:58.303Z,9.2
2022-11-04T03:09:01.737Z,9.2
2022-11-04T03:10:04.808Z,9.2
2022-11-04T03:11:08.153Z,9.2
2022-11-04T03:12:11.575Z,9.2
2022-11-04T03:13:14.330Z,9.2
2022-11-04T03:14:17.572Z,9.2
2022-11-04T03:15:20.766Z,9.2
2022-11-04T03:16:23.598Z,9.2
2022-11-04T03:17:26.206Z,9.2
2022-11-04T03:18:29.006Z,9.2
2022-11-04T03:19:32.264Z,9.2
2022-11-04T03:20:35.452Z,9.2
2022-11-04T03:21:39.072Z,9.2
2022-11-04T03:22:42.157Z,9.2
2022-11-04T03:23:45.502Z,9.2
2022-11-04T03:24:48.970Z,9.2
2022-11-04T03:25:52.354Z,9.2
2022-11-04T03:26:55.535Z,9.2
2022-11-04T03:27:58.961Z,9.2
2022-11-04T03:29:01.444Z,9.2
2022-11-04T03:30:05.827Z,9.2
2022-11-04T03:31:08.774Z,9.2
2022-11-04T03:32:11.988Z,9.2
2022-11-04T03:33:14.437Z,9.2
2022-11-04T03:34:17.512Z,9.2
2022-11-04T03:35:20.299Z,9.2
2022-11-04T03:36:23.685Z,9.2
2022-11-04T03:37:26.469Z,9.2
2022-11-04T03:38:29.298Z,9.2
2022-11-04T03:39:32.076Z,9.2
2022-11-04T03:40:35.042Z,9.2
2022-11-04T03:41:37.913Z,9.2
2022-11-04T03:42:40.903Z,9.3
2022-11-04T03:43:43.766Z,9.3
2022-11-04T03:44:46.233Z,9.3
2022-11-04T03:45:49.034Z,9.3
2022-11-04T03:46:52.253Z,9.3
2022-11-04T03:47:55.433Z,9.3
2022-11-04T03:48:58.712Z,9.3
2022-11-04T03:50:01.792Z,9.3
2022-11-04T03:51:04.395Z,9.3
2022-11-04T03:52:08.171Z,9.3
2022-11-04T03:53:14.543Z,9.3
2022-11-04T03:54:18.541Z,9.3
2022-11-04T03:55:22.624Z,9.3
2022-11-04T03:56:25.801Z,9.3
2022-11-04T03:57:28.319Z,9.3
2022-11-04T03:58:31.392Z,9.3
2022-11-04T03:59:33.827Z,9.2
2022-11-04T04:00:36.860Z,9.3
2022-11-04T04:01:40.531Z,9.3
2022-11-04T04:02:44.559Z,9.3
2022-11-04T04:03:47.990Z,9.2
2022-11-04T04:04:50.532Z,9.2
2022-11-04T04:05:53.324Z,9.2
2022-11-04T04:06:55.929Z,9.3
2022-11-04T04:07:59.307Z,9.3
2022-11-04T04:09:02.750Z,9.3
2022-11-04T04:10:05.468Z,9.2
2022-11-04T04:11:08.540Z,9.2
2022-11-04T04:12:11.331Z,9.2
2022-11-04T04:13:15.460Z,9.2
2022-11-04T04:14:19.111Z,9.2
2022-11-04T04:15:21.708Z,9.2
2022-11-04T04:16:28.365Z,9.2
2022-11-04T04:17:31.737Z,9.2
2022-11-04T04:18:34.848Z,9.2
2022-11-04T04:19:37.948Z,9.2
2022-11-04T04:20:40.811Z,9.2
2022-11-04T04:21:42.970Z,9.2
2022-11-04T04:22:46.037Z,9.2
2022-11-04T04:23:49.216Z,9.1
2022-11-04T04:24:52.202Z,9.2
2022-11-04T04:25:55.728Z,9.1
2022-11-04T04:26:58.904Z,9.2
2022-11-04T04:28:02.547Z,9.1
2022-11-04T04:29:05.503Z,9.1
2022-11-04T04:30:08.978Z,9.1
2022-11-04T04:31:11.695Z,9.1
2022-11-04T04:32:14.994Z,9.1
2022-11-04T04:33:17.810Z,9.1
2022-11-04T04:34:20.655Z,9.1
2022-11-04T04:35:23.480Z,9.1
2022-11-04T04:36:26.007Z,9.1
2022-11-04T04:37:28.813Z,9.1
2022-11-04T04:38:30.751Z,9.1
2022-11-04T04:39:33.856Z,9.1
2022-11-04T04:40:37.280Z,9.1
2022-11-04T04:41:40.090Z,9.1
2022-11-04T04:42:42.694Z,9.2
2022-11-04T04:43:45.480Z,9.1
2022-11-04T04:44:48.632Z,9.1
2022-11-04T04:45:51.427Z,9.1
2022-11-04T04:46:54.835Z,9.1
2022-11-04T04:47:58.246Z,9.1
2022-11-04T04:49:01.271Z,9.1
2022-11-04T04:50:04.098Z,9.1
2022-11-04T04:51:07.830Z,9.1
2022-11-04T04:52:10.931Z,9.1
2022-11-04T04:53:13.951Z,9.1
2022-11-04T04:54:17.317Z,9.1
2022-11-04T04:55:20.783Z,9.1
2022-11-04T04:56:23.935Z,9.1
2022-11-04T04:57:26.462Z,9.1
2022-11-04T04:58:29.087Z,9.1
2022-11-04T04:59:32.266Z,9
2022-11-04T05:00:35.406Z,9.1
2022-11-04T05:01:39.428Z,9.1
2022-11-04T05:02:42.953Z,9.1
2022-11-04T05:03:47.367Z,9.1
2022-11-04T05:04:50.096Z,9.1
2022-11-04T05:05:59.593Z,9
2022-11-04T05:07:02.993Z,9.1
2022-11-04T05:08:07.856Z,9
2022-11-04T05:09:11.131Z,9.1
2022-11-04T05:10:14.873Z,9.1
2022-11-04T05:11:27.198Z,9.1
2022-11-04T05:12:30.112Z,9.1
2022-11-04T05:13:32.897Z,9.1
2022-11-04T05:14:36.673Z,9.1
2022-11-04T05:15:40.383Z,9.1
2022-11-04T05:16:43.567Z,9.1
2022-11-04T05:17:46.730Z,9
2022-11-04T05:18:49.180Z,9.1
2022-11-04T05:19:51.969Z,9.1
2022-11-04T05:20:55.009Z,9
2022-11-04T05:21:58.241Z,9.1
2022-11-04T05:23:01.475Z,9
2022-11-04T05:24:04.821Z,9.1
2022-11-04T05:25:07.904Z,9.1
2022-11-04T05:26:10.348Z,9.1
2022-11-04T05:27:13.899Z,9.1
2022-11-04T05:28:16.897Z,9.1
2022-11-04T05:29:19.701Z,9.1
2022-11-04T05:30:22.514Z,9.1
2022-11-04T05:31:25.736Z,9.1
2022-11-04T05:32:29.387Z,9.1
2022-11-04T05:33:32.838Z,9.2
2022-11-04T05:34:35.297Z,9.2
2022-11-04T05:35:39.017Z,9.2
2022-11-04T05:36:41.930Z,9.2
2022-11-04T05:37:44.747Z,9.1
2022-11-04T05:38:47.457Z,9.1
2022-11-04T05:39:50.444Z,9.1
2022-11-04T05:40:53.553Z,9.2
2022-11-04T05:41:56.688Z,9.1
2022-11-04T05:43:00.092Z,9.2
2022-11-04T05:44:02.968Z,9.1
2022-11-04T05:45:05.760Z,9.1
2022-11-04T05:46:08.200Z,9.1
2022-11-04T05:47:10.360Z,9.1
2022-11-04T05:48:12.892Z,9.2
2022-11-04T05:49:16.049Z,9.1
2022-11-04T05:50:19.248Z,9.2
2022-11-04T05:51:22.679Z,9.1
2022-11-04T05:52:26.083Z,9.1
2022-11-04T05:53:28.357Z,9.2
2022-11-04T05:54:32.087Z,9.2
2022-11-04T05:55:35.547Z,9.2
2022-11-04T05:56:37.961Z,9.2
2022-11-04T05:57:40.804Z,9.2
2022-11-04T05:58:44.538Z,9.2
2022-11-04T05:59:47.882Z,9.2
2022-11-04T06:00:50.968Z,9.2
2022-11-04T06:01:54.880Z,9.2
2022-11-04T06:02:58.866Z,9.3
2022-11-04T06:04:02.006Z,9.2
2022-11-04T06:05:05.183Z,9.3
2022-11-04T06:06:08.370Z,9.3
2022-11-04T06:07:11.080Z,9.2
2022-11-04T06:08:14.401Z,9.2
2022-11-04T06:09:17.427Z,9.2
2022-11-04T06:10:20.617Z,9.3
2022-11-04T06:11:23.680Z,9.3
2022-11-04T06:12:26.476Z,9.3
2022-11-04T06:13:29.820Z,9.3
2022-11-04T06:14:32.932Z,9.3
2022-11-04T06:15:35.528Z,9.3
2022-11-04T06:16:38.600Z,9.2
2022-11-04T06:17:41.306Z,9.3
2022-11-04T06:18:44.379Z,9.3
2022-11-04T06:19:47.529Z,9.3
2022-11-04T06:20:50.977Z,9.3
2022-11-04T06:21:53.808Z,9.3
2022-11-04T06:22:56.621Z,9.3
2022-11-04T06:23:59.268Z,9.3
2022-11-04T06:25:02.176Z,9.3
2022-11-04T06:26:05.549Z,9.3
2022-11-04T06:27:08.990Z,9.3
2022-11-04T06:28:13.008Z,9.3
2022-11-04T06:29:16.150Z,9.3
2022-11-04T06:30:19.553Z,9.3
2022-11-04T06:31:22.694Z,9.3
2022-11-04T06:32:26.700Z,9.3
2022-11-04T06:33:38.072Z,9.3
2022-11-04T06:34:41.197Z,9.3
2022-11-04T06:35:43.717Z,9.3
2022-11-04T06:36:47.182Z,9.3
2022-11-04T06:37:50.279Z,9.3
2022-11-04T06:38:53.698Z,9.3
2022-11-04T06:39:56.894Z,9.3
2022-11-04T06:41:00.205Z,9.3
2022-11-04T06:42:04.374Z,9.3
2022-11-04T06:43:09.056Z,9.3
2022-11-04T06:44:11.945Z,9.3
2022-11-04T06:45:14.546Z,9.4
2022-11-04T06:46:17.951Z,9.3
2022-11-04T06:47:26.690Z,9.4
2022-11-04T06:48:29.588Z,9.4
2022-11-04T06:49:32.928Z,9.4
2022-11-04T06:50:36.003Z,9.4
2022-11-04T06:51:39.803Z,9.4
2022-11-04T06:52:43.952Z,9.4
2022-11-04T06:53:46.692Z,9.4
2022-11-04T06:54:49.832Z,9.4
2022-11-04T06:55:53.603Z,9.4
2022-11-04T06:56:56.493Z,9.4
2022-11-04T06:57:59.951Z,9.4
2022-11-04T06:59:03.419Z,9.4
2022-11-04T07:00:06.197Z,9.4
2022-11-04T07:01:23.703Z,9.4
2022-11-04T07:02:28.811Z,9.4
2022-11-04T07:03:31.781Z,9.4
2022-11-04T07:04:34.921Z,9.4
2022-11-04T07:05:37.980Z,9.4
2022-11-04T07:06:46.206Z,9.5
2022-11-04T07:07:49.939Z,9.5
2022-11-04T07:08:53.201Z,9.5
2022-11-04T07:09:55.917Z,9.5
2022-11-04T07:10:59.314Z,9.5
2022-11-04T07:12:02.413Z,9.4
2022-11-04T07:13:05.931Z,9.4
2022-11-04T07:14:08.540Z,9.4
2022-11-04T07:15:11.967Z,9.4
2022-11-04T07:16:14.264Z,9.4
2022-11-04T07:17:17.140Z,9.4
2022-11-04T07:18:20.495Z,9.5
2022-11-04T07:19:23.296Z,9.5
2022-11-04T07:20:26.945Z,9.5
2022-11-04T07:21:30.674Z,9.5
2022-11-04T07:22:34.104Z,9.4
2022-11-04T07:23:36.827Z,9.5
2022-11-04T07:24:40.318Z,9.5
2022-11-04T07:25:43.940Z,9.5
2022-11-04T07:26:47.239Z,9.5
2022-11-04T07:27:50.680Z,9.6
2022-11-04T07:28:53.576Z,9.6
2022-11-04T07:29:56.757Z,9.6
2022-11-04T07:31:00.136Z,9.6
2022-11-04T07:32:04.154Z,9.6
2022-11-04T07:33:07.623Z,9.6
2022-11-04T07:34:10.796Z,9.5
2022-11-04T07:35:13.907Z,9.6
2022-11-04T07:36:16.802Z,9.6
2022-11-04T07:37:19.881Z,9.6
2022-11-04T07:38:23.035Z,9.6
2022-11-04T07:39:26.165Z,9.6
2022-11-04T07:40:28.900Z,9.6
2022-11-04T07:41:32.041Z,9.7
2022-11-04T07:42:35.443Z,9.6
2022-11-04T07:43:39.181Z,9.7
2022-11-04T07:44:42.649Z,9.7
2022-11-04T07:45:46.061Z,9.7
2022-11-04T07:46:49.227Z,9.7
2022-11-04T07:47:52.057Z,9.7
2022-11-04T07:48:55.147Z,9.7
2022-11-04T07:49:58.957Z,9.7
2022-11-04T07:51:02.478Z,9.7
2022-11-04T07:52:05.187Z,9.7
2022-11-04T07:53:10.382Z,9.7
2022-11-04T07:54:13.623Z,9.7
2022-11-04T07:55:16.437Z,9.7
2022-11-04T07:56:18.897Z,9.8
2022-11-04T07:57:22.042Z,9.8
2022-11-04T07:58:24.877Z,9.8
2022-11-04T07:59:27.905Z,9.8
2022-11-04T08:00:31.666Z,9.9
2022-11-04T08:01:35.433Z,9.9
2022-11-04T08:02:39.487Z,9.9
2022-11-04T08:03:42.118Z,9.8
2022-11-04T08:04:45.234Z,9.9
2022-11-04T08:05:48.983Z,9.9
2022-11-04T08:06:52.442Z,9.8
2022-11-04T08:07:55.874Z,9.9
2022-11-04T08:08:59.068Z,9.9
2022-11-04T08:10:03.247Z,9.9
2022-11-04T08:11:06.711Z,9.9
2022-11-04T08:12:09.172Z,9.9
2022-11-04T08:13:13.308Z,9.9
2022-11-04T08:14:16.220Z,9.9
2022-11-04T08:15:19.063Z,9.9
2022-11-04T08:16:22.589Z,9.9
2022-11-04T08:17:26.331Z,9.9
2022-11-04T08:18:29.801Z,9.9
2022-11-04T08:19:33.558Z,10
2022-11-04T08:20:36.929Z,10
2022-11-04T08:21:40.381Z,10
2022-11-04T08:22:44.028Z,10
2022-11-04T08:23:47.132Z,10
2022-11-04T08:24:50.761Z,10.1
2022-11-04T08:25:53.269Z,10.1
2022-11-04T08:26:56.978Z,10.1
2022-11-04T08:28:02.814Z,10.1
2022-11-04T08:29:05.906Z,10.1
2022-11-04T08:30:09.284Z,10.1
2022-11-04T08:31:12.088Z,10.1
2022-11-04T08:32:15.448Z,10.1
2022-11-04T08:33:17.843Z,10.1
2022-11-04T08:34:20.912Z,10.1
2022-11-04T08:35:23.978Z,10.1
2022-11-04T08:36:27.468Z,10.1
2022-11-04T08:37:31.209Z,10.1
2022-11-04T08:38:34.413Z,10.1
2022-11-04T08:39:37.248Z,10.2
2022-11-04T08:40:39.954Z,10.1
2022-11-04T08:41:43.310Z,10.1
2022-11-04T08:42:46.307Z,10.2
2022-11-04T08:43:48.787Z,10.2
2022-11-04T08:44:52.143Z,10.2
2022-11-04T08:45:55.334Z,10.2
2022-11-04T08:46:58.197Z,10.2
2022-11-04T08:48:08.326Z,10.2
2022-11-04T08:49:22.572Z,10.2
2022-11-04T08:50:25.941Z,10.3
2022-11-04T08:51:28.849Z,10.3
2022-11-04T08:52:31.680Z,10.3
2022-11-04T08:53:35.185Z,10.3
2022-11-04T08:54:38.961Z,10.3
2022-11-04T08:55:42.129Z,10.3
2022-11-04T08:56:45.911Z,10.4
2022-11-04T08:57:49.640Z,10.4
2022-11-04T08:58:53.011Z,10.4
2022-11-04T08:59:56.460Z,10.4
2022-11-04T09:00:59.526Z,10.4
2022-11-04T09:02:02.907Z,10.4
2022-11-04T09:03:06.277Z,10.4
2022-11-04T09:04:09.694Z,10.4
2022-11-04T09:05:12.311Z,10.4
2022-11-04T09:06:15.948Z,10.4
2022-11-04T09:07:19.192Z,10.4
2022-11-04T09:08:22.922Z,10.5
2022-11-04T09:09:26.044Z,10.4
2022-11-04T09:10:28.667Z,10.5
2022-11-04T09:11:30.979Z,10.5
2022-11-04T09:12:33.516Z,10.5
2022-11-04T09:13:41.826Z,10.5
2022-11-04T09:14:44.661Z,10.5
2022-11-04T09:15:47.741Z,10.5
2022-11-04T09:16:50.935Z,10.5
2022-11-04T09:17:54.771Z,10.6
2022-11-04T09:18:58.014Z,10.6
2022-11-04T09:20:00.523Z,10.6
2022-11-04T09:21:03.872Z,10.6
2022-11-04T09:22:06.311Z,10.6
2022-11-04T09:23:11.166Z,10.6
2022-11-04T09:24:15.034Z,10.6
2022-11-04T09:25:18.971Z,10.6
2022-11-04T09:26:21.597Z,10.7
2022-11-04T09:27:24.036Z,10.6
2022-11-04T09:28:27.489Z,10.6
2022-11-04T09:29:30.994Z,10.6
2022-11-04T09:30:34.805Z,10.6
2022-11-04T09:31:38.282Z,10.7
2022-11-04T09:32:41.960Z,10.7
2022-11-04T09:33:45.513Z,10.7
2022-11-04T09:34:48.990Z,10.8
2022-11-04T09:35:52.710Z,10.7
2022-11-04T09:36:55.187Z,10.8
2022-11-04T09:37:58.454Z,10.8
2022-11-04T09:39:01.624Z,10.8
2022-11-04T09:40:05.302Z,10.9
2022-11-04T09:41:09.066Z,11
2022-11-04T09:42:12.453Z,11.1
2022-11-04T09:43:15.349Z,11.1
2022-11-04T09:44:18.806Z,11.2
2022-11-04T09:45:24.596Z,11.3
2022-11-04T09:46:27.709Z,11.3
2022-11-04T09:47:30.500Z,11.3
2022-11-04T09:48:33.921Z,11.3
2022-11-04T09:49:37.508Z,11.3
2022-11-04T09:50:40.526Z,11.4
2022-11-04T09:51:59.626Z,11.4
2022-11-04T09:53:02.624Z,11.4
2022-11-04T09:54:05.622Z,11.4
2022-11-04T09:55:09.281Z,11.4
2022-11-04T09:56:12.823Z,11.4
2022-11-04T09:57:15.971Z,11.4
2022-11-04T09:58:19.662Z,11.4
2022-11-04T09:59:22.013Z,11.5
2022-11-04T10:00:25.009Z,11.4
2022-11-04T10:01:29.994Z,11.3
2022-11-04T10:02:34.281Z,11.3
2022-11-04T10:03:38.185Z,11.3
2022-11-04T10:04:41.696Z,11.2
2022-11-04T10:05:45.338Z,11.2
2022-11-04T10:06:48.330Z,11.2
2022-11-04T10:07:51.485Z,11.2
2022-11-04T10:08:54.284Z,11.2
2022-11-04T10:09:58.012Z,11.2
2022-11-04T10:11:01.146Z,11.2
2022-11-04T10:12:04.701Z,11.2
2022-11-04T10:13:10.117Z,11.2
2022-11-04T10:14:13.565Z,11.2
2022-11-04T10:15:16.561Z,11.2
2022-11-04T10:16:19.802Z,11.2
2022-11-04T10:17:23.076Z,11.2
2022-11-04T10:18:26.870Z,11.1
2022-11-04T10:19:30.325Z,11.1
2022-11-04T10:20:34.181Z,11.1
2022-11-04T10:21:38.063Z,11.1
2022-11-04T10:22:40.858Z,11.1
2022-11-04T10:23:44.032Z,11.1
2022-11-04T10:24:47.024Z,11.1
2022-11-04T10:25:50.088Z,11.1
2022-11-04T10:27:02.495Z,11
2022-11-04T10:28:05.417Z,11.1
2022-11-04T10:29:08.797Z,11.1
2022-11-04T10:30:11.629Z,11.1
2022-11-04T10:31:14.069Z,11.1
2022-11-04T10:32:24.189Z,11.1
2022-11-04T10:33:27.016Z,11.1
2022-11-04T10:34:30.029Z,11.1
2022-11-04T10:35:34.294Z,11.2
2022-11-04T10:36:36.564Z,11.2
2022-11-04T10:37:40.015Z,11.2
2022-11-04T10:38:43.011Z,11.2
2022-11-04T10:39:46.445Z,11.2
2022-11-04T10:40:49.443Z,11.2
2022-11-04T10:41:52.618Z,11.2
2022-11-04T10:42:55.714Z,11.3
2022-11-04T10:43:59.150Z,11.2
2022-11-04T10:45:02.285Z,11.2
2022-11-04T10:46:04.994Z,11.2
2022-11-04T10:47:07.800Z,11.2
2022-11-04T10:48:10.602Z,11.2
2022-11-04T10:49:13.891Z,11.2
2022-11-04T10:50:33.211Z,11.2
2022-11-04T10:51:37.037Z,11.3
2022-11-04T10:52:39.924Z,11.2
2022-11-04T10:53:42.697Z,11.2
2022-11-04T10:54:45.843Z,11.2
2022-11-04T10:55:49.286Z,11.2
2022-11-04T10:56:53.280Z,11.1
2022-11-04T10:57:56.817Z,11.1
2022-11-04T10:58:59.952Z,11.1
2022-11-04T11:00:03.366Z,11.1
2022-11-04T11:01:15.391Z,11.1
2022-11-04T11:02:19.433Z,11.1
2022-11-04T11:03:22.784Z,11
2022-11-04T11:04:25.889Z,11
2022-11-04T11:05:29.589Z,11
2022-11-04T11:06:32.762Z,11
2022-11-04T11:07:36.246Z,11
2022-11-04T11:08:39.078Z,11
2022-11-04T11:09:42.193Z,11
2022-11-04T11:10:45.296Z,11
2022-11-04T11:11:48.437Z,11.1
2022-11-04T11:12:53.885Z,11.1
2022-11-04T11:13:57.256Z,11.2
2022-11-04T11:15:01.367Z,11.2
2022-11-04T11:16:04.582Z,11.3
2022-11-04T11:17:07.654Z,11.4
2022-11-04T11:18:10.668Z,11.3
2022-11-04T11:19:13.469Z,11.4
2022-11-04T11:20:16.352Z,11.4
2022-11-04T11:21:19.545Z,11.4
2022-11-04T11:22:21.807Z,11.5
2022-11-04T11:23:24.849Z,11.4
2022-11-04T11:24:27.663Z,11.5
2022-11-04T11:25:30.928Z,11.5
2022-11-04T11:26:33.384Z,11.5
2022-11-04T11:27:37.110Z,11.6
2022-11-04T11:28:39.913Z,11.6
2022-11-04T11:29:42.991Z,11.6
2022-11-04T11:30:46.088Z,11.6
2022-11-04T11:31:49.865Z,11.7
2022-11-04T11:32:52.658Z,11.7
2022-11-04T11:33:55.808Z,11.7
2022-11-04T11:34:58.339Z,11.7
2022-11-04T11:36:01.309Z,11.7
2022-11-04T11:37:04.342Z,11.7
2022-11-04T11:38:07.164Z,11.7
2022-11-04T11:39:10.493Z,11.7
2022-11-04T11:40:12.941Z,11.7
2022-11-04T11:41:31.371Z,11.7
2022-11-04T11:42:34.171Z,11.8
2022-11-04T11:43:37.271Z,11.8
2022-11-04T11:44:40.402Z,11.7
2022-11-04T11:45:43.466Z,11.7
2022-11-04T11:46:46.658Z,11.7
2022-11-04T11:47:49.477Z,11.7
2022-11-04T11:48:52.277Z,11.6
2022-11-04T11:49:55.716Z,11.7
2022-11-04T11:50:58.912Z,11.7
2022-11-04T11:52:01.632Z,11.7
2022-11-04T11:53:04.528Z,11.7
2022-11-04T11:54:07.104Z,11.7
2022-11-04T11:55:10.310Z,11.7
2022-11-04T11:56:13.171Z,11.7
2022-11-04T11:57:26.768Z,11.6
2022-11-04T12:00:37.277Z,11.6
2022-11-04T12:01:48.233Z,11.7
2022-11-04T12:02:52.819Z,11.7
2022-11-04T12:10:53.599Z,11.7
2022-11-04T12:11:56.749Z,11.8
2022-11-04T12:13:01.076Z,11.8
2022-11-04T12:14:03.399Z,11.8
2022-11-04T12:15:05.925Z,11.8
2022-11-04T12:16:08.728Z,11.8
2022-11-04T12:17:11.526Z,11.8
2022-11-04T12:18:15.062Z,11.8
2022-11-04T12:19:19.177Z,11.8
2022-11-04T12:20:22.610Z,11.8
2022-11-04T12:21:25.992Z,11.8
2022-11-04T12:22:29.062Z,11.9
2022-11-04T12:23:32.058Z,11.9
2022-11-04T12:24:35.784Z,12
2022-11-04T12:25:38.930Z,12
2022-11-04T12:26:42.440Z,12.1
2022-11-04T12:27:45.354Z,12.2
2022-11-04T12:28:48.567Z,12.3
2022-11-04T12:29:51.911Z,12.4
2022-11-04T12:30:55.284Z,12.4
2022-11-04T12:31:57.916Z,12.4
2022-11-04T12:33:01.357Z,12.4
2022-11-04T12:34:05.110Z,12.4
2022-11-04T12:35:08.809Z,12.3
2022-11-04T12:36:12.240Z,12.2
2022-11-04T12:37:15.462Z,12.1
2022-11-04T12:38:18.612Z,12.1
2022-11-04T12:39:21.860Z,12.1
2022-11-04T12:40:25.265Z,12.1
2022-11-04T12:42:32.589Z,12.1
2022-11-04T12:43:36.656Z,12.1
2022-11-04T12:44:40.040Z,12.1
2022-11-04T12:45:43.565Z,12.1
2022-11-04T12:46:46.297Z,12.1
2022-11-04T12:47:49.408Z,12.1
2022-11-04T12:49:08.178Z,12.1
2022-11-04T12:50:11.770Z,12.1
2022-11-04T12:51:15.223Z,12.1
2022-11-04T12:52:18.846Z,12
2022-11-04T12:53:22.193Z,12.1
2022-11-04T12:54:24.920Z,12
2022-11-04T12:55:28.947Z,12
2022-11-04T12:56:32.024Z,12
2022-11-04T12:57:34.825Z,12
2022-11-04T12:58:38.262Z,12
2022-11-04T12:59:40.917Z,12
2022-11-04T13:00:45.370Z,11.9
2022-11-04T13:01:49.204Z,11.9
2022-11-04T13:02:52.727Z,11.9
2022-11-04T13:03:56.158Z,11.9
2022-11-04T13:04:59.065Z,11.9
2022-11-04T13:06:02.640Z,11.9
2022-11-04T13:07:05.783Z,11.9
2022-11-04T13:08:15.739Z,11.9
2022-11-04T13:09:19.168Z,11.9
2022-11-04T13:10:22.533Z,11.9
2022-11-04T13:11:25.396Z,11.9
2022-11-04T13:12:29.064Z,11.9
2022-11-04T13:13:32.160Z,11.9
2022-11-04T13:14:35.312Z,11.9
2022-11-04T13:15:38.817Z,11.9
2022-11-04T13:16:42.922Z,11.9
2022-11-04T13:17:46.723Z,11.9
2022-11-04T13:18:49.993Z,11.9
2022-11-04T13:19:52.818Z,11.9
2022-11-04T13:21:04.445Z,11.9
2022-11-04T13:22:07.548Z,11.8
2022-11-04T13:23:12.827Z,11.8
2022-11-04T13:24:16.211Z,11.8
2022-11-04T13:25:19.686Z,11.8
2022-11-04T13:26:22.969Z,11.8
2022-11-04T13:27:26.161Z,11.8
2022-11-04T13:28:29.375Z,11.8
2022-11-04T13:29:32.461Z,11.8
2022-11-04T13:30:35.626Z,11.8
2022-11-04T13:31:39.133Z,11.8
2022-11-04T13:32:42.239Z,11.8
2022-11-04T13:33:45.307Z,11.8
2022-11-04T13:34:48.097Z,11.8
2022-11-04T13:35:50.981Z,11.7
2022-11-04T13:36:54.747Z,11.7
2022-11-04T13:37:58.129Z,11.7
2022-11-04T13:39:00.942Z,11.7
2022-11-04T13:40:03.665Z,11.6
2022-11-04T13:41:22.179Z,11.7
2022-11-04T13:42:25.571Z,11.7
2022-11-04T13:43:28.529Z,11.7
2022-11-04T13:44:31.613Z,11.7
2022-11-04T13:45:37.054Z,11.7
2022-11-04T13:46:39.491Z,11.7
2022-11-04T13:47:42.974Z,11.8
2022-11-04T13:48:46.808Z,11.8
2022-11-04T13:49:49.613Z,11.8
2022-11-04T13:50:52.135Z,11.8
2022-11-04T13:51:55.227Z,11.7
2022-11-04T13:52:58.599Z,11.7
2022-11-04T13:54:02.032Z,11.8
2022-11-04T13:55:05.512Z,11.8
2022-11-04T13:56:36.282Z,11.8
2022-11-04T13:57:39.356Z,11.7
2022-11-04T13:58:48.663Z,11.7
2022-11-04T13:59:52.237Z,11.7
2022-11-04T14:00:55.694Z,11.8
2022-11-04T14:01:59.278Z,11.8
2022-11-04T14:03:03.963Z,11.7
2022-11-04T14:04:07.443Z,11.7
2022-11-04T14:05:10.317Z,11.7
2022-11-04T14:06:13.473Z,11.8
2022-11-04T14:07:16.066Z,11.8
2022-11-04T14:08:18.808Z,11.8
2022-11-04T14:09:22.370Z,11.8
2022-11-04T14:10:25.446Z,11.8
2022-11-04T14:11:28.235Z,11.8
2022-11-04T14:12:31.124Z,11.8
2022-11-04T14:13:34.195Z,11.8
2022-11-04T14:14:37.291Z,11.8
2022-11-04T14:15:40.688Z,11.8
2022-11-04T14:16:44.427Z,11.8
2022-11-04T14:17:47.993Z,11.8
2022-11-04T14:18:51.446Z,11.8
2022-11-04T14:19:54.909Z,11.8
2022-11-04T14:20:57.432Z,11.8
2022-11-04T14:22:01.485Z,11.8
2022-11-04T14:23:04.586Z,11.8
2022-11-04T14:24:16.173Z,11.8
2022-11-04T14:25:20.061Z,11.8
2022-11-04T14:26:23.807Z,11.8
2022-11-04T14:27:27.508Z,11.8
2022-11-04T14:28:30.417Z,11.8
2022-11-04T14:29:34.513Z,11.8
2022-11-04T14:30:38.050Z,11.8
2022-11-04T14:31:41.184Z,11.8
2022-11-04T14:32:43.747Z,11.8
2022-11-04T14:33:46.473Z,11.8
2022-11-04T14:34:50.949Z,11.8